sensor_id;sensor_type;location;lat;lon;timestamp;P1;durP1;ratioP1;P2;durP2;ratioP2
14778;SDS011;7481;53.750;10.570;2022-10-16T00:01:13;9.93;;;5.40;;
14778;SDS011;7481;53.750;10.570;2022-10-16T00:04:01;6.50;;;5.20;;
14778;SDS011;7481;53.750;10.570;2022-10-16T00:06:49;7.93;;;5.73;;
14778;SDS011;7481;53.750;10.570;2022-10-16T00:09:35;8.40;;;5.53;;
14778;SDS011;7481;53.750;10.570;2022-10-16T00:12:22;8.13;;;5.17;;
14778;SDS011;7481;53.750;10.570;2022-10-16T00:15:10;6.93;;;5.20;;
14778;SDS011;7481;53.750;10.570;2022-10-16T00:17:57;7.23;;;4.60;;
14778;SDS011;7481;53.750;10.570;2022-10-16T00:20:44;7.90;;;4.87;;
14778;SDS011;7481;53.750;10.570;2022-10-16T00:23:31;7.43;;;5.03;;
14778;SDS011;7481;53.750;10.570;2022-10-16T00:26:18;6.77;;;5.03;;
14778;SDS011;7481;53.750;10.570;2022-10-16T00:29:06;6.40;;;5.00;;
14778;SDS011;7481;53.750;10.570;2022-10-16T00:31:53;6.57;;;5.70;;
14778;SDS011;7481;53.750;10.570;2022-10-16T00:34:40;7.80;;;5.20;;
14778;SDS011;7481;53.750;10.570;2022-10-16T00:37:27;6.27;;;5.50;;
14778;SDS011;7481;53.750;10.570;2022-10-16T00:40:14;7.67;;;5.70;;
14778;SDS011;7481;53.750;10.570;2022-10-16T00:43:01;8.17;;;6.33;;
14778;SDS011;7481;53.750;10.570;2022-10-16T00:45:48;8.17;;;5.40;;
14778;SDS011;7481;53.750;10.570;2022-10-16T00:48:35;6.20;;;5.43;;
14778;SDS011;7481;53.750;10.570;2022-10-16T00:51:23;8.07;;;5.53;;
14778;SDS011;7481;53.750;10.570;2022-10-16T00:54:15;7.00;;;6.10;;
14778;SDS011;7481;53.750;10.570;2022-10-16T00:57:11;6.83;;;5.60;;
14778;SDS011;7481;53.750;10.570;2022-10-16T01:00:04;7.53;;;6.13;;
14778;SDS011;7481;53.750;10.570;2022-10-16T01:02:54;7.70;;;6.00;;
14778;SDS011;7481;53.750;10.570;2022-10-16T01:05:44;11.10;;;6.27;;
14778;SDS011;7481;53.750;10.570;2022-10-16T01:08:48;7.17;;;5.93;;
14778;SDS011;7481;53.750;10.570;2022-10-16T01:11:48;8.00;;;5.90;;
14778;SDS011;7481;53.750;10.570;2022-10-16T01:14:47;7.50;;;6.13;;
14778;SDS011;7481;53.750;10.570;2022-10-16T01:17:45;8.53;;;6.57;;
14778;SDS011;7481;53.750;10.570;2022-10-16T01:20:40;8.30;;;5.70;;
14778;SDS011;7481;53.750;10.570;2022-10-16T01:23:41;8.00;;;5.63;;
14778;SDS011;7481;53.750;10.570;2022-10-16T01:27:05;7.13;;;5.50;;
14778;SDS011;7481;53.750;10.570;2022-10-16T01:36:01;6.43;;;5.73;;
14778;SDS011;7481;53.750;10.570;2022-10-16T01:38:52;8.83;;;6.20;;
14778;SDS011;7481;53.750;10.570;2022-10-16T01:41:47;7.97;;;5.50;;
14778;SDS011;7481;53.750;10.570;2022-10-16T01:44:39;7.60;;;6.13;;
14778;SDS011;7481;53.750;10.570;2022-10-16T01:47:27;9.83;;;6.37;;
14778;SDS011;7481;53.750;10.570;2022-10-16T01:50:18;6.93;;;5.77;;
14778;SDS011;7481;53.750;10.570;2022-10-16T01:53:07;8.80;;;5.67;;
14778;SDS011;7481;53.750;10.570;2022-10-16T01:55:58;7.80;;;5.30;;
14778;SDS011;7481;53.750;10.570;2022-10-16T01:58:51;7.33;;;5.83;;
14778;SDS011;7481;53.750;10.570;2022-10-16T02:01:42;6.50;;;5.47;;
14778;SDS011;7481;53.750;10.570;2022-10-16T02:04:39;5.87;;;5.27;;
14778;SDS011;7481;53.750;10.570;2022-10-16T02:07:29;8.40;;;5.63;;
14778;SDS011;7481;53.750;10.570;2022-10-16T02:10:17;8.77;;;5.57;;
14778;SDS011;7481;53.750;10.570;2022-10-16T02:13:22;6.97;;;5.13;;
14778;SDS011;7481;53.750;10.570;2022-10-16T02:16:14;7.30;;;4.93;;
14778;SDS011;7481;53.750;10.570;2022-10-16T02:19:01;7.43;;;4.83;;
14778;SDS011;7481;53.750;10.570;2022-10-16T02:30:55;7.00;;;4.10;;
14778;SDS011;7481;53.750;10.570;2022-10-16T02:33:49;5.77;;;4.30;;
14778;SDS011;7481;53.750;10.570;2022-10-16T02:36:38;7.30;;;4.00;;
14778;SDS011;7481;53.750;10.570;2022-10-16T02:39:27;5.67;;;3.90;;
14778;SDS011;7481;53.750;10.570;2022-10-16T02:42:15;5.77;;;3.80;;
14778;SDS011;7481;53.750;10.570;2022-10-16T02:45:04;7.40;;;3.53;;
14778;SDS011;7481;53.750;10.570;2022-10-16T02:47:52;5.87;;;3.80;;
14778;SDS011;7481;53.750;10.570;2022-10-16T02:50:39;4.87;;;3.50;;
14778;SDS011;7481;53.750;10.570;2022-10-16T02:53:26;5.23;;;3.60;;
14778;SDS011;7481;53.750;10.570;2022-10-16T02:56:13;4.70;;;3.00;;
14778;SDS011;7481;53.750;10.570;2022-10-16T02:59:00;5.17;;;3.53;;
14778;SDS011;7481;53.750;10.570;2022-10-16T03:01:47;4.93;;;3.57;;
14778;SDS011;7481;53.750;10.570;2022-10-16T03:04:34;5.07;;;3.37;;
14778;SDS011;7481;53.750;10.570;2022-10-16T03:07:21;6.07;;;3.50;;
14778;SDS011;7481;53.750;10.570;2022-10-16T03:10:09;4.23;;;3.20;;
14778;SDS011;7481;53.750;10.570;2022-10-16T03:12:56;10.17;;;3.33;;
14778;SDS011;7481;53.750;10.570;2022-10-16T03:15:43;4.20;;;3.20;;
14778;SDS011;7481;53.750;10.570;2022-10-16T03:18:30;7.10;;;3.80;;
14778;SDS011;7481;53.750;10.570;2022-10-16T03:21:17;10.20;;;3.33;;
14778;SDS011;7481;53.750;10.570;2022-10-16T03:24:04;3.73;;;3.13;;
14778;SDS011;7481;53.750;10.570;2022-10-16T03:26:51;3.57;;;3.13;;
14778;SDS011;7481;53.750;10.570;2022-10-16T03:29:38;4.37;;;3.10;;
14778;SDS011;7481;53.750;10.570;2022-10-16T03:32:25;7.60;;;2.93;;
14778;SDS011;7481;53.750;10.570;2022-10-16T03:35:12;7.40;;;2.97;;
14778;SDS011;7481;53.750;10.570;2022-10-16T03:37:59;5.67;;;2.73;;
14778;SDS011;7481;53.750;10.570;2022-10-16T03:40:46;6.90;;;2.90;;
14778;SDS011;7481;53.750;10.570;2022-10-16T03:43:34;3.70;;;2.80;;
14778;SDS011;7481;53.750;10.570;2022-10-16T03:46:20;4.67;;;2.57;;
14778;SDS011;7481;53.750;10.570;2022-10-16T03:49:07;5.73;;;2.67;;
14778;SDS011;7481;53.750;10.570;2022-10-16T03:51:55;6.37;;;2.70;;
14778;SDS011;7481;53.750;10.570;2022-10-16T03:54:42;4.37;;;2.80;;
14778;SDS011;7481;53.750;10.570;2022-10-16T03:57:29;4.03;;;3.00;;
14778;SDS011;7481;53.750;10.570;2022-10-16T04:00:16;5.83;;;3.30;;
14778;SDS011;7481;53.750;10.570;2022-10-16T04:03:03;10.27;;;5.77;;
14778;SDS011;7481;53.750;10.570;2022-10-16T04:05:50;5.83;;;4.20;;
14778;SDS011;7481;53.750;10.570;2022-10-16T04:08:37;3.90;;;2.60;;
14778;SDS011;7481;53.750;10.570;2022-10-16T04:11:25;4.57;;;2.47;;
14778;SDS011;7481;53.750;10.570;2022-10-16T04:14:12;5.90;;;2.80;;
14778;SDS011;7481;53.750;10.570;2022-10-16T04:16:59;5.13;;;2.80;;
14778;SDS011;7481;53.750;10.570;2022-10-16T04:19:46;4.47;;;2.80;;
14778;SDS011;7481;53.750;10.570;2022-10-16T04:22:33;5.00;;;2.93;;
14778;SDS011;7481;53.750;10.570;2022-10-16T04:25:20;4.83;;;2.67;;
14778;SDS011;7481;53.750;10.570;2022-10-16T04:28:07;5.60;;;2.77;;
14778;SDS011;7481;53.750;10.570;2022-10-16T04:30:54;3.27;;;2.40;;
14778;SDS011;7481;53.750;10.570;2022-10-16T04:33:44;6.50;;;2.50;;
14778;SDS011;7481;53.750;10.570;2022-10-16T04:36:31;6.47;;;3.27;;
14778;SDS011;7481;53.750;10.570;2022-10-16T04:39:18;5.93;;;2.90;;
14778;SDS011;7481;53.750;10.570;2022-10-16T04:42:05;4.43;;;2.80;;
14778;SDS011;7481;53.750;10.570;2022-10-16T04:44:52;4.43;;;2.93;;
14778;SDS011;7481;53.750;10.570;2022-10-16T04:47:39;3.40;;;2.40;;
14778;SDS011;7481;53.750;10.570;2022-10-16T04:50:26;3.23;;;2.87;;
14778;SDS011;7481;53.750;10.570;2022-10-16T04:53:13;3.53;;;2.40;;
14778;SDS011;7481;53.750;10.570;2022-10-16T04:56:00;3.50;;;2.23;;
14778;SDS011;7481;53.750;10.570;2022-10-16T04:58:47;4.50;;;2.30;;
14778;SDS011;7481;53.750;10.570;2022-10-16T05:01:34;3.50;;;2.30;;
14778;SDS011;7481;53.750;10.570;2022-10-16T05:04:21;3.37;;;2.17;;
14778;SDS011;7481;53.750;10.570;2022-10-16T05:07:08;4.13;;;2.43;;
14778;SDS011;7481;53.750;10.570;2022-10-16T05:09:55;3.40;;;2.10;;
14778;SDS011;7481;53.750;10.570;2022-10-16T05:12:42;3.13;;;2.07;;
14778;SDS011;7481;53.750;10.570;2022-10-16T05:15:29;4.93;;;2.30;;
14778;SDS011;7481;53.750;10.570;2022-10-16T05:18:17;3.97;;;2.37;;
14778;SDS011;7481;53.750;10.570;2022-10-16T05:21:04;4.83;;;2.33;;
14778;SDS011;7481;53.750;10.570;2022-10-16T05:23:52;3.73;;;1.97;;
14778;SDS011;7481;53.750;10.570;2022-10-16T05:26:41;5.67;;;2.40;;
14778;SDS011;7481;53.750;10.570;2022-10-16T05:29:27;5.23;;;2.60;;
14778;SDS011;7481;53.750;10.570;2022-10-16T05:32:15;3.43;;;2.53;;
14778;SDS011;7481;53.750;10.570;2022-10-16T05:35:03;4.10;;;1.90;;
14778;SDS011;7481;53.750;10.570;2022-10-16T05:37:55;4.63;;;2.40;;
14778;SDS011;7481;53.750;10.570;2022-10-16T05:40:42;4.23;;;2.07;;
14778;SDS011;7481;53.750;10.570;2022-10-16T05:43:30;5.20;;;2.23;;
14778;SDS011;7481;53.750;10.570;2022-10-16T05:46:18;7.83;;;2.37;;
14778;SDS011;7481;53.750;10.570;2022-10-16T05:49:05;6.57;;;2.40;;
14778;SDS011;7481;53.750;10.570;2022-10-16T05:51:52;5.07;;;2.40;;
14778;SDS011;7481;53.750;10.570;2022-10-16T05:54:39;3.77;;;2.67;;
14778;SDS011;7481;53.750;10.570;2022-10-16T05:57:26;3.30;;;2.20;;
14778;SDS011;7481;53.750;10.570;2022-10-16T06:00:13;5.03;;;2.20;;
14778;SDS011;7481;53.750;10.570;2022-10-16T06:03:00;4.80;;;2.40;;
14778;SDS011;7481;53.750;10.570;2022-10-16T06:05:47;2.67;;;2.13;;
14778;SDS011;7481;53.750;10.570;2022-10-16T06:08:34;4.40;;;2.10;;
14778;SDS011;7481;53.750;10.570;2022-10-16T06:11:23;3.63;;;2.03;;
14778;SDS011;7481;53.750;10.570;2022-10-16T06:14:12;5.73;;;2.33;;
14778;SDS011;7481;53.750;10.570;2022-10-16T06:16:59;2.97;;;2.00;;
14778;SDS011;7481;53.750;10.570;2022-10-16T06:19:46;3.53;;;2.10;;
14778;SDS011;7481;53.750;10.570;2022-10-16T06:22:33;3.37;;;2.10;;
14778;SDS011;7481;53.750;10.570;2022-10-16T06:25:20;5.53;;;2.43;;
14778;SDS011;7481;53.750;10.570;2022-10-16T06:28:07;8.40;;;2.73;;
14778;SDS011;7481;53.750;10.570;2022-10-16T06:31:01;4.37;;;2.20;;
14778;SDS011;7481;53.750;10.570;2022-10-16T06:33:53;2.77;;;1.97;;
14778;SDS011;7481;53.750;10.570;2022-10-16T06:36:41;4.00;;;2.50;;
14778;SDS011;7481;53.750;10.570;2022-10-16T06:39:29;4.33;;;2.30;;
14778;SDS011;7481;53.750;10.570;2022-10-16T06:42:16;9.40;;;3.47;;
14778;SDS011;7481;53.750;10.570;2022-10-16T06:45:03;4.87;;;2.50;;
14778;SDS011;7481;53.750;10.570;2022-10-16T06:47:50;7.00;;;2.57;;
14778;SDS011;7481;53.750;10.570;2022-10-16T06:50:37;3.93;;;2.90;;
14778;SDS011;7481;53.750;10.570;2022-10-16T06:53:24;3.67;;;2.83;;
14778;SDS011;7481;53.750;10.570;2022-10-16T06:56:14;5.00;;;2.73;;
14778;SDS011;7481;53.750;10.570;2022-10-16T06:59:05;4.27;;;2.97;;
14778;SDS011;7481;53.750;10.570;2022-10-16T07:01:52;5.43;;;2.70;;
14778;SDS011;7481;53.750;10.570;2022-10-16T07:04:39;4.93;;;2.90;;
14778;SDS011;7481;53.750;10.570;2022-10-16T07:07:26;5.67;;;2.80;;
14778;SDS011;7481;53.750;10.570;2022-10-16T07:10:13;4.73;;;2.60;;
14778;SDS011;7481;53.750;10.570;2022-10-16T07:13:01;6.97;;;3.13;;
14778;SDS011;7481;53.750;10.570;2022-10-16T07:15:48;6.83;;;2.70;;
14778;SDS011;7481;53.750;10.570;2022-10-16T07:18:35;4.83;;;2.80;;
14778;SDS011;7481;53.750;10.570;2022-10-16T07:21:23;4.97;;;2.60;;
14778;SDS011;7481;53.750;10.570;2022-10-16T07:24:13;3.50;;;2.53;;
14778;SDS011;7481;53.750;10.570;2022-10-16T07:27:02;4.10;;;2.77;;
14778;SDS011;7481;53.750;10.570;2022-10-16T07:29:49;5.70;;;2.77;;
14778;SDS011;7481;53.750;10.570;2022-10-16T07:32:36;4.73;;;2.67;;
14778;SDS011;7481;53.750;10.570;2022-10-16T07:35:23;4.90;;;2.60;;
14778;SDS011;7481;53.750;10.570;2022-10-16T07:38:10;3.67;;;2.60;;
14778;SDS011;7481;53.750;10.570;2022-10-16T07:40:58;6.83;;;2.90;;
14778;SDS011;7481;53.750;10.570;2022-10-16T07:43:49;6.90;;;3.00;;
14778;SDS011;7481;53.750;10.570;2022-10-16T07:46:40;4.20;;;3.07;;
14778;SDS011;7481;53.750;10.570;2022-10-16T07:49:27;8.20;;;2.80;;
14778;SDS011;7481;53.750;10.570;2022-10-16T07:52:14;5.73;;;3.23;;
14778;SDS011;7481;53.750;10.570;2022-10-16T07:55:01;7.17;;;3.20;;
14778;SDS011;7481;53.750;10.570;2022-10-16T07:57:49;5.90;;;3.30;;
14778;SDS011;7481;53.750;10.570;2022-10-16T08:00:36;6.00;;;3.03;;
14778;SDS011;7481;53.750;10.570;2022-10-16T08:03:24;5.33;;;3.10;;
14778;SDS011;7481;53.750;10.570;2022-10-16T08:06:11;6.13;;;2.90;;
14778;SDS011;7481;53.750;10.570;2022-10-16T08:08:59;5.63;;;2.80;;
14778;SDS011;7481;53.750;10.570;2022-10-16T08:11:46;4.20;;;2.70;;
14778;SDS011;7481;53.750;10.570;2022-10-16T08:14:33;4.93;;;3.00;;
14778;SDS011;7481;53.750;10.570;2022-10-16T08:17:20;5.57;;;3.10;;
14778;SDS011;7481;53.750;10.570;2022-10-16T08:20:07;5.43;;;3.23;;
14778;SDS011;7481;53.750;10.570;2022-10-16T08:22:54;3.87;;;2.43;;
14778;SDS011;7481;53.750;10.570;2022-10-16T08:25:42;4.63;;;2.83;;
14778;SDS011;7481;53.750;10.570;2022-10-16T08:28:29;5.77;;;3.10;;
14778;SDS011;7481;53.750;10.570;2022-10-16T08:31:16;8.13;;;4.87;;
14778;SDS011;7481;53.750;10.570;2022-10-16T08:34:08;5.47;;;3.00;;
14778;SDS011;7481;53.750;10.570;2022-10-16T08:36:55;7.10;;;3.70;;
14778;SDS011;7481;53.750;10.570;2022-10-16T08:39:42;5.17;;;3.40;;
14778;SDS011;7481;53.750;10.570;2022-10-16T08:42:31;3.80;;;2.80;;
14778;SDS011;7481;53.750;10.570;2022-10-16T08:48:43;6.00;;;3.10;;
14778;SDS011;7481;53.750;10.570;2022-10-16T08:51:34;5.77;;;3.73;;
14778;SDS011;7481;53.750;10.570;2022-10-16T08:54:29;7.90;;;3.47;;
14778;SDS011;7481;53.750;10.570;2022-10-16T08:57:24;3.97;;;2.40;;
14778;SDS011;7481;53.750;10.570;2022-10-16T09:00:13;3.23;;;2.27;;
14778;SDS011;7481;53.750;10.570;2022-10-16T09:06:10;2.70;;;2.05;;
14778;SDS011;7481;53.750;10.570;2022-10-16T09:12:39;5.28;;;2.22;;
14778;SDS011;7481;53.750;10.570;2022-10-16T09:22:01;2.15;;;1.73;;
14778;SDS011;7481;53.750;10.570;2022-10-16T09:24:59;3.83;;;2.25;;
14778;SDS011;7481;53.750;10.570;2022-10-16T09:27:52;2.78;;;1.92;;
14778;SDS011;7481;53.750;10.570;2022-10-16T09:30:40;2.13;;;1.73;;
14778;SDS011;7481;53.750;10.570;2022-10-16T09:33:33;3.92;;;2.00;;
14778;SDS011;7481;53.750;10.570;2022-10-16T09:36:23;1.92;;;1.73;;
14778;SDS011;7481;53.750;10.570;2022-10-16T09:39:13;4.05;;;1.90;;
14778;SDS011;7481;53.750;10.570;2022-10-16T09:42:00;3.15;;;1.85;;
14778;SDS011;7481;53.750;10.570;2022-10-16T09:44:48;4.70;;;1.70;;
14778;SDS011;7481;53.750;10.570;2022-10-16T09:47:37;2.67;;;1.90;;
14778;SDS011;7481;53.750;10.570;2022-10-16T09:50:28;3.67;;;2.00;;
14778;SDS011;7481;53.750;10.570;2022-10-16T09:53:15;2.67;;;1.50;;
14778;SDS011;7481;53.750;10.570;2022-10-16T09:56:05;2.20;;;1.90;;
14778;SDS011;7481;53.750;10.570;2022-10-16T09:59:00;2.00;;;1.52;;
14778;SDS011;7481;53.750;10.570;2022-10-16T10:01:50;3.13;;;1.70;;
14778;SDS011;7481;53.750;10.570;2022-10-16T10:04:40;4.53;;;1.98;;
14778;SDS011;7481;53.750;10.570;2022-10-16T10:07:37;2.85;;;1.40;;
14778;SDS011;7481;53.750;10.570;2022-10-16T10:10:30;4.32;;;1.40;;
14778;SDS011;7481;53.750;10.570;2022-10-16T10:13:20;4.07;;;1.60;;
14778;SDS011;7481;53.750;10.570;2022-10-16T10:16:10;2.92;;;1.33;;
14778;SDS011;7481;53.750;10.570;2022-10-16T10:18:58;3.25;;;1.60;;
14778;SDS011;7481;53.750;10.570;2022-10-16T10:21:46;4.88;;;1.80;;
14778;SDS011;7481;53.750;10.570;2022-10-16T10:24:33;2.10;;;1.55;;
14778;SDS011;7481;53.750;10.570;2022-10-16T10:27:20;3.90;;;1.42;;
14778;SDS011;7481;53.750;10.570;2022-10-16T10:33:11;2.45;;;1.20;;
14778;SDS011;7481;53.750;10.570;2022-10-16T10:39:25;3.78;;;1.70;;
14778;SDS011;7481;53.750;10.570;2022-10-16T10:48:22;3.15;;;1.65;;
14778;SDS011;7481;53.750;10.570;2022-10-16T10:51:12;2.92;;;1.70;;
14778;SDS011;7481;53.750;10.570;2022-10-16T10:57:17;2.45;;;1.50;;
14778;SDS011;7481;53.750;10.570;2022-10-16T11:03:09;3.83;;;1.88;;
14778;SDS011;7481;53.750;10.570;2022-10-16T11:06:16;4.63;;;1.58;;
14778;SDS011;7481;53.750;10.570;2022-10-16T11:12:34;2.22;;;1.48;;
14778;SDS011;7481;53.750;10.570;2022-10-16T11:15:31;2.85;;;1.63;;
14778;SDS011;7481;53.750;10.570;2022-10-16T11:18:28;3.05;;;1.63;;
14778;SDS011;7481;53.750;10.570;2022-10-16T11:21:25;3.47;;;1.80;;
14778;SDS011;7481;53.750;10.570;2022-10-16T11:24:34;1.55;;;1.30;;
14778;SDS011;7481;53.750;10.570;2022-10-16T11:34:01;3.35;;;1.52;;
14778;SDS011;7481;53.750;10.570;2022-10-16T11:37:14;2.25;;;1.20;;
14778;SDS011;7481;53.750;10.570;2022-10-16T11:40:14;2.70;;;1.40;;
14778;SDS011;7481;53.750;10.570;2022-10-16T11:43:11;5.35;;;1.88;;
14778;SDS011;7481;53.750;10.570;2022-10-16T11:46:19;3.20;;;1.67;;
14778;SDS011;7481;53.750;10.570;2022-10-16T11:49:14;3.13;;;1.35;;
14778;SDS011;7481;53.750;10.570;2022-10-16T11:52:07;4.70;;;2.05;;
14778;SDS011;7481;53.750;10.570;2022-10-16T11:55:09;2.97;;;1.30;;
14778;SDS011;7481;53.750;10.570;2022-10-16T12:01:20;2.03;;;1.27;;
14778;SDS011;7481;53.750;10.570;2022-10-16T12:04:39;4.20;;;1.67;;
14778;SDS011;7481;53.750;10.570;2022-10-16T12:07:36;3.70;;;1.35;;
14778;SDS011;7481;53.750;10.570;2022-10-16T12:10:28;3.83;;;1.40;;
14778;SDS011;7481;53.750;10.570;2022-10-16T12:13:35;3.45;;;1.20;;
14778;SDS011;7481;53.750;10.570;2022-10-16T12:16:25;4.00;;;1.48;;
14778;SDS011;7481;53.750;10.570;2022-10-16T12:19:15;1.38;;;1.10;;
14778;SDS011;7481;53.750;10.570;2022-10-16T12:22:05;4.70;;;1.67;;
14778;SDS011;7481;53.750;10.570;2022-10-16T12:25:04;2.90;;;1.70;;
14778;SDS011;7481;53.750;10.570;2022-10-16T12:28:05;2.03;;;1.40;;
14778;SDS011;7481;53.750;10.570;2022-10-16T12:31:05;4.25;;;1.45;;
14778;SDS011;7481;53.750;10.570;2022-10-16T12:33:58;1.95;;;1.02;;
14778;SDS011;7481;53.750;10.570;2022-10-16T12:36:47;3.42;;;1.63;;
14778;SDS011;7481;53.750;10.570;2022-10-16T12:39:34;3.10;;;1.00;;
14778;SDS011;7481;53.750;10.570;2022-10-16T12:42:30;6.47;;;1.65;;
14778;SDS011;7481;53.750;10.570;2022-10-16T12:45:27;3.58;;;1.60;;
14778;SDS011;7481;53.750;10.570;2022-10-16T12:48:19;3.08;;;1.58;;
14778;SDS011;7481;53.750;10.570;2022-10-16T12:51:25;1.92;;;1.27;;
14778;SDS011;7481;53.750;10.570;2022-10-16T12:54:23;3.85;;;1.60;;
14778;SDS011;7481;53.750;10.570;2022-10-16T12:57:26;4.88;;;1.33;;
14778;SDS011;7481;53.750;10.570;2022-10-16T13:06:55;4.15;;;1.70;;
14778;SDS011;7481;53.750;10.570;2022-10-16T13:10:22;2.95;;;1.50;;
14778;SDS011;7481;53.750;10.570;2022-10-16T13:13:32;2.45;;;1.45;;
14778;SDS011;7481;53.750;10.570;2022-10-16T13:19:38;8.23;;;1.60;;
14778;SDS011;7481;53.750;10.570;2022-10-16T13:22:56;6.03;;;1.67;;
14778;SDS011;7481;53.750;10.570;2022-10-16T13:29:16;2.88;;;1.58;;
14778;SDS011;7481;53.750;10.570;2022-10-16T13:32:07;4.50;;;1.80;;
14778;SDS011;7481;53.750;10.570;2022-10-16T13:34:56;4.47;;;1.38;;
14778;SDS011;7481;53.750;10.570;2022-10-16T13:37:43;4.35;;;1.67;;
14778;SDS011;7481;53.750;10.570;2022-10-16T13:40:30;5.22;;;1.60;;
14778;SDS011;7481;53.750;10.570;2022-10-16T13:43:25;8.10;;;1.50;;
14778;SDS011;7481;53.750;10.570;2022-10-16T13:46:35;3.70;;;1.63;;
14778;SDS011;7481;53.750;10.570;2022-10-16T13:49:22;2.78;;;1.17;;
14778;SDS011;7481;53.750;10.570;2022-10-16T13:52:19;3.85;;;1.27;;
14778;SDS011;7481;53.750;10.570;2022-10-16T13:55:17;6.83;;;1.63;;
14778;SDS011;7481;53.750;10.570;2022-10-16T13:58:08;4.30;;;1.92;;
14778;SDS011;7481;53.750;10.570;2022-10-16T14:01:01;3.57;;;1.40;;
14778;SDS011;7481;53.750;10.570;2022-10-16T14:03:51;2.53;;;1.38;;
14778;SDS011;7481;53.750;10.570;2022-10-16T14:06:45;3.00;;;1.20;;
14778;SDS011;7481;53.750;10.570;2022-10-16T14:09:35;6.05;;;1.85;;
14778;SDS011;7481;53.750;10.570;2022-10-16T14:12:23;3.90;;;1.30;;
14778;SDS011;7481;53.750;10.570;2022-10-16T14:15:17;4.07;;;1.30;;
14778;SDS011;7481;53.750;10.570;2022-10-16T14:18:05;3.45;;;1.50;;
14778;SDS011;7481;53.750;10.570;2022-10-16T14:20:52;4.90;;;2.10;;
14778;SDS011;7481;53.750;10.570;2022-10-16T14:23:42;4.13;;;1.73;;
14778;SDS011;7481;53.750;10.570;2022-10-16T14:26:30;5.10;;;2.10;;
14778;SDS011;7481;53.750;10.570;2022-10-16T14:29:36;5.53;;;1.70;;
14778;SDS011;7481;53.750;10.570;2022-10-16T14:32:23;2.80;;;1.40;;
14778;SDS011;7481;53.750;10.570;2022-10-16T14:35:30;5.90;;;1.77;;
14778;SDS011;7481;53.750;10.570;2022-10-16T14:38:22;5.13;;;1.90;;
14778;SDS011;7481;53.750;10.570;2022-10-16T14:41:09;7.72;;;1.80;;
14778;SDS011;7481;53.750;10.570;2022-10-16T14:43:58;5.50;;;1.60;;
14778;SDS011;7481;53.750;10.570;2022-10-16T14:46:49;4.78;;;1.73;;
14778;SDS011;7481;53.750;10.570;2022-10-16T14:49:36;9.38;;;1.85;;
14778;SDS011;7481;53.750;10.570;2022-10-16T14:52:23;5.00;;;1.70;;
14778;SDS011;7481;53.750;10.570;2022-10-16T14:55:10;3.97;;;1.80;;
14778;SDS011;7481;53.750;10.570;2022-10-16T14:57:57;3.45;;;1.50;;
14778;SDS011;7481;53.750;10.570;2022-10-16T15:00:46;7.22;;;2.45;;
14778;SDS011;7481;53.750;10.570;2022-10-16T15:03:33;3.57;;;1.50;;
14778;SDS011;7481;53.750;10.570;2022-10-16T15:06:21;3.38;;;1.60;;
14778;SDS011;7481;53.750;10.570;2022-10-16T15:09:08;4.70;;;1.50;;
14778;SDS011;7481;53.750;10.570;2022-10-16T15:11:55;3.58;;;1.67;;
14778;SDS011;7481;53.750;10.570;2022-10-16T15:14:42;5.15;;;1.65;;
14778;SDS011;7481;53.750;10.570;2022-10-16T15:17:29;6.00;;;1.75;;
14778;SDS011;7481;53.750;10.570;2022-10-16T15:20:16;3.73;;;1.50;;
14778;SDS011;7481;53.750;10.570;2022-10-16T15:23:10;3.97;;;1.80;;
14778;SDS011;7481;53.750;10.570;2022-10-16T15:26:01;2.85;;;1.55;;
14778;SDS011;7481;53.750;10.570;2022-10-16T15:28:48;3.37;;;1.60;;
14778;SDS011;7481;53.750;10.570;2022-10-16T15:31:35;5.15;;;1.48;;
14778;SDS011;7481;53.750;10.570;2022-10-16T15:34:22;5.38;;;1.40;;
14778;SDS011;7481;53.750;10.570;2022-10-16T15:37:09;3.40;;;1.53;;
14778;SDS011;7481;53.750;10.570;2022-10-16T15:39:58;3.63;;;1.30;;
14778;SDS011;7481;53.750;10.570;2022-10-16T15:42:45;4.37;;;1.57;;
14778;SDS011;7481;53.750;10.570;2022-10-16T15:45:32;4.07;;;1.50;;
14778;SDS011;7481;53.750;10.570;2022-10-16T15:48:19;4.43;;;1.50;;
14778;SDS011;7481;53.750;10.570;2022-10-16T15:51:07;3.50;;;1.93;;
14778;SDS011;7481;53.750;10.570;2022-10-16T15:53:55;3.60;;;1.40;;
14778;SDS011;7481;53.750;10.570;2022-10-16T15:56:43;4.30;;;1.70;;
14778;SDS011;7481;53.750;10.570;2022-10-16T15:59:31;5.83;;;2.00;;
14778;SDS011;7481;53.750;10.570;2022-10-16T16:02:18;5.50;;;2.70;;
14778;SDS011;7481;53.750;10.570;2022-10-16T16:05:06;3.00;;;2.20;;
14778;SDS011;7481;53.750;10.570;2022-10-16T16:07:54;6.13;;;2.10;;
14778;SDS011;7481;53.750;10.570;2022-10-16T16:10:41;6.03;;;2.30;;
14778;SDS011;7481;53.750;10.570;2022-10-16T16:13:28;6.30;;;2.63;;
14778;SDS011;7481;53.750;10.570;2022-10-16T16:16:16;5.97;;;2.67;;
14778;SDS011;7481;53.750;10.570;2022-10-16T16:19:04;7.10;;;2.67;;
14778;SDS011;7481;53.750;10.570;2022-10-16T16:21:57;4.07;;;2.03;;
14778;SDS011;7481;53.750;10.570;2022-10-16T16:24:44;9.97;;;2.50;;
14778;SDS011;7481;53.750;10.570;2022-10-16T16:27:31;5.30;;;3.27;;
14778;SDS011;7481;53.750;10.570;2022-10-16T16:30:20;14.50;;;8.83;;
14778;SDS011;7481;53.750;10.570;2022-10-16T16:33:12;14.20;;;8.70;;
14778;SDS011;7481;53.750;10.570;2022-10-16T16:36:00;14.53;;;7.07;;
14778;SDS011;7481;53.750;10.570;2022-10-16T16:38:49;9.97;;;5.53;;
14778;SDS011;7481;53.750;10.570;2022-10-16T16:41:36;8.63;;;4.60;;
14778;SDS011;7481;53.750;10.570;2022-10-16T16:44:24;9.53;;;4.87;;
14778;SDS011;7481;53.750;10.570;2022-10-16T16:47:11;7.80;;;3.97;;
14778;SDS011;7481;53.750;10.570;2022-10-16T16:49:58;5.37;;;3.13;;
14778;SDS011;7481;53.750;10.570;2022-10-16T16:52:45;6.40;;;2.90;;
14778;SDS011;7481;53.750;10.570;2022-10-16T16:55:32;6.13;;;3.17;;
14778;SDS011;7481;53.750;10.570;2022-10-16T16:58:20;21.07;;;10.43;;
14778;SDS011;7481;53.750;10.570;2022-10-16T17:01:08;30.63;;;13.63;;
14778;SDS011;7481;53.750;10.570;2022-10-16T17:04:12;36.10;;;14.73;;
14778;SDS011;7481;53.750;10.570;2022-10-16T17:07:01;40.43;;;18.70;;
14778;SDS011;7481;53.750;10.570;2022-10-16T17:09:48;39.83;;;19.63;;
14778;SDS011;7481;53.750;10.570;2022-10-16T17:12:35;28.00;;;14.53;;
14778;SDS011;7481;53.750;10.570;2022-10-16T17:15:22;22.83;;;12.70;;
14778;SDS011;7481;53.750;10.570;2022-10-16T17:18:09;16.97;;;8.23;;
14778;SDS011;7481;53.750;10.570;2022-10-16T17:20:59;8.17;;;4.63;;
14778;SDS011;7481;53.750;10.570;2022-10-16T17:23:50;11.20;;;4.23;;
14778;SDS011;7481;53.750;10.570;2022-10-16T17:26:38;6.70;;;2.83;;
14778;SDS011;7481;53.750;10.570;2022-10-16T17:29:27;5.80;;;3.10;;
14778;SDS011;7481;53.750;10.570;2022-10-16T17:32:13;5.10;;;3.20;;
14778;SDS011;7481;53.750;10.570;2022-10-16T17:35:01;4.53;;;3.07;;
14778;SDS011;7481;53.750;10.570;2022-10-16T17:37:47;10.33;;;4.97;;
14778;SDS011;7481;53.750;10.570;2022-10-16T17:40:37;12.60;;;7.80;;
14778;SDS011;7481;53.750;10.570;2022-10-16T17:43:24;14.53;;;9.60;;
14778;SDS011;7481;53.750;10.570;2022-10-16T17:46:12;17.63;;;12.07;;
14778;SDS011;7481;53.750;10.570;2022-10-16T17:49:00;28.90;;;19.50;;
14778;SDS011;7481;53.750;10.570;2022-10-16T17:51:51;23.33;;;14.73;;
14778;SDS011;7481;53.750;10.570;2022-10-16T17:54:39;12.00;;;7.50;;
14778;SDS011;7481;53.750;10.570;2022-10-16T17:57:26;10.53;;;5.20;;
14778;SDS011;7481;53.750;10.570;2022-10-16T18:00:13;10.83;;;5.10;;
14778;SDS011;7481;53.750;10.570;2022-10-16T18:03:00;9.23;;;4.33;;
14778;SDS011;7481;53.750;10.570;2022-10-16T18:05:47;7.40;;;3.90;;
14778;SDS011;7481;53.750;10.570;2022-10-16T18:08:34;5.93;;;3.90;;
14778;SDS011;7481;53.750;10.570;2022-10-16T18:11:25;11.27;;;5.37;;
14778;SDS011;7481;53.750;10.570;2022-10-16T18:14:13;19.23;;;13.90;;
14778;SDS011;7481;53.750;10.570;2022-10-16T18:17:02;22.63;;;17.97;;
14778;SDS011;7481;53.750;10.570;2022-10-16T18:19:49;21.93;;;16.00;;